Time;durP1;ratioP1;P1;durP2;ratioP2;P2;SDS_P1;SDS_P2;PMS_P1;PMS_P2;Temp;Humidity;BMP_temperature;BMP_pressure;BME280_temperature;BME280_humidity;BME280_pressure;Samples;Min_cycle;Max_cycle;Signal;HPM_P1;HPM_P2
2022/09/13 00:01:22;;;;;;;9.40;7.88;;;;;;;-145.50;100.00;65435.88;5069745;28;20052;-62
2022/09/13 00:03:49;;;;;;;9.57;7.78;;;;;;;-145.50;100.00;65435.88;5066374;28;20109;-63
2022/09/13 00:06:17;;;;;;;12.40;8.27;;;;;;;-145.50;100.00;65435.88;5072827;28;20048;-60
2022/09/13 00:08:44;;;;;;;10.50;8.20;;;;;;;-145.50;100.00;65435.88;5064219;28;20056;-61
2022/09/13 00:11:19;;;;;;;9.77;8.13;;;;;;;-145.50;100.00;65435.88;5077862;28;20044;-61
2022/09/13 00:13:46;;;;;;;10.75;8.52;;;;;;;-145.50;100.00;65435.88;5069974;28;20105;-61
2022/09/13 00:16:15;;;;;;;10.80;8.32;;;;;;;-145.50;100.00;65435.88;5070969;28;20056;-61
2022/09/13 00:18:42;;;;;;;12.45;8.73;;;;;;;-145.50;100.00;65435.88;5073011;28;20044;-62
2022/09/13 00:21:12;;;;;;;10.57;8.45;;;;;;;-145.50;100.00;65435.88;5066743;28;20680;-61
2022/09/13 00:23:40;;;;;;;11.82;8.40;;;;;;;-145.50;100.00;65435.88;5068245;28;20140;-62
2022/09/13 00:26:08;;;;;;;;;;;;;;;-145.50;100.00;65435.88;5063395;28;20056;-62
2022/09/13 00:28:35;;;;;;;;;;;;;;;-145.50;100.00;65435.88;5077356;28;19924;-62
2022/09/13 00:31:04;;;;;;;9.90;8.07;;;;;;;-145.50;100.00;65435.88;5062525;28;19947;-62
2022/09/13 00:33:30;;;;;;;;;;;;;;;-145.50;100.00;65435.88;5070525;28;20094;-62
2022/09/13 00:35:56;;;;;;;10.65;8.02;;;;;;;-145.50;100.00;65435.88;5079511;28;19924;-61
2022/09/13 00:38:23;;;;;;;11.10;8.05;;;;;;;-145.50;100.00;65435.88;5066776;28;20424;-61
2022/09/13 00:40:49;;;;;;;10.50;8.00;;;;;;;-145.50;100.00;65435.88;5072695;28;20044;-60
2022/09/13 00:43:18;;;;;;;8.80;7.82;;;;;;;-145.50;100.00;65435.88;5059938;28;20106;-60
2022/09/13 00:45:47;;;;;;;10.75;8.35;;;;;;;-145.50;100.00;65435.88;5068130;28;20048;-63
2022/09/13 00:48:20;;;;;;;11.18;8.63;;;;;;;-145.50;100.00;65435.88;5071448;28;20048;-62
2022/09/13 00:50:52;;;;;;;11.32;8.82;;;;;;;-145.50;100.00;65435.88;5076033;28;20056;-63
2022/09/13 00:53:25;;;;;;;11.10;8.27;;;;;;;-145.50;100.00;65435.88;5076117;28;20051;-61
2022/09/13 00:55:56;;;;;;;10.68;8.77;;;;;;;-145.50;100.00;65435.88;5076766;28;20126;-61
2022/09/13 00:58:28;;;;;;;13.13;8.60;;;;;;;-145.50;100.00;65435.88;5069142;28;20056;-61
2022/09/13 01:00:58;;;;;;;10.68;8.38;;;;;;;-145.50;100.00;65435.88;5059913;28;20524;-62
2022/09/13 01:03:27;;;;;;;11.07;8.63;;;;;;;-145.50;100.00;65435.88;5060004;28;20088;-62
2022/09/13 01:06:00;;;;;;;12.15;8.55;;;;;;;-145.50;100.00;65435.88;5062219;28;20463;-63
2022/09/13 01:08:30;;;;;;;13.18;8.82;;;;;;;-145.50;100.00;65435.88;5074366;28;20503;-63
2022/09/13 01:11:00;;;;;;;13.68;9.10;;;;;;;-145.50;100.00;65435.88;5062644;28;20049;-61
2022/09/13 01:13:30;;;;;;;10.20;8.35;;;;;;;-145.50;100.00;65435.88;5064008;28;20052;-62
2022/09/13 01:15:58;;;;;;;12.23;9.00;;;;;;;-145.50;100.00;65435.88;5068211;28;20561;-62
2022/09/13 01:18:25;;;;;;;11.90;9.32;;;;;;;-145.50;100.00;65435.88;5064009;28;20083;-62
2022/09/13 01:21:11;;;;;;;13.88;9.48;;;;;;;-145.50;100.00;65435.88;5069619;28;20484;-62
2022/09/13 01:24:02;;;;;;;13.25;9.80;;;;;;;-145.50;100.00;65435.88;5064478;28;20048;-61
2022/09/13 01:26:56;;;;;;;14.23;9.98;;;;;;;-145.50;100.00;65435.88;5069443;28;20052;-61
2022/09/13 01:29:40;;;;;;;12.75;9.60;;;;;;;-145.50;100.00;65435.88;5063718;28;20044;-61
2022/09/13 01:32:34;;;;;;;12.75;9.68;;;;;;;-145.50;100.00;65435.88;5071036;28;20051;-62
2022/09/13 01:35:11;;;;;;;16.92;10.98;;;;;;;-145.50;100.00;65435.88;5064599;28;20455;-62
2022/09/13 01:37:49;;;;;;;14.80;10.70;;;;;;;-145.50;100.00;65435.88;5065021;28;20057;-62
2022/09/13 01:40:22;;;;;;;13.45;10.75;;;;;;;-145.50;100.00;65435.88;5051832;28;20048;-63
2022/09/13 01:43:06;;;;;;;13.40;10.52;;;;;;;-145.50;100.00;65435.88;5069837;28;20538;-61
2022/09/13 01:45:45;;;;;;;13.00;10.27;;;;;;;-145.50;100.00;65435.88;5065343;28;20650;-62
2022/09/13 01:48:28;;;;;;;11.07;9.65;;;;;;;-145.50;100.00;65435.88;5068405;28;20053;-62
2022/09/13 01:51:04;;;;;;;13.27;9.25;;;;;;;-145.50;100.00;65435.88;5057970;28;20117;-62
2022/09/13 01:53:45;;;;;;;12.70;9.82;;;;;;;-145.50;100.00;65435.88;5063173;28;20060;-62
2022/09/13 01:56:22;;;;;;;15.05;10.02;;;;;;;-145.50;100.00;65435.88;5060071;28;20052;-62
2022/09/13 01:58:59;;;;;;;13.57;10.68;;;;;;;-145.50;100.00;65435.88;5076465;28;20052;-62
2022/09/13 02:01:33;;;;;;;15.00;9.57;;;;;;;-145.50;100.00;65435.88;5068872;28;20048;-63
2022/09/13 02:04:08;;;;;;;13.10;9.65;;;;;;;-145.50;100.00;65435.88;5058211;28;20135;-63
2022/09/13 02:06:40;;;;;;;14.77;9.63;;;;;;;-145.50;100.00;65435.88;5069481;28;20056;-61
2022/09/13 02:09:15;;;;;;;12.35;9.82;;;;;;;-145.50;100.00;65435.88;5061556;28;20098;-62
2022/09/13 02:11:52;;;;;;;14.18;9.63;;;;;;;-145.50;100.00;65435.88;5068698;28;20485;-61
2022/09/13 02:14:24;;;;;;;12.77;10.00;;;;;;;-145.50;100.00;65435.88;5061355;28;20562;-62
2022/09/13 02:16:57;;;;;;;12.57;9.70;;;;;;;-145.50;100.00;65435.88;5060931;28;20048;-62
2022/09/13 02:19:34;;;;;;;15.32;9.52;;;;;;;-145.50;100.00;65435.88;5059609;28;20080;-62
2022/09/13 02:22:04;;;;;;;13.67;10.20;;;;;;;-145.50;100.00;65435.88;5067610;28;20056;-61
2022/09/13 02:24:35;;;;;;;14.35;10.27;;;;;;;-145.50;100.00;65435.88;5065881;28;20527;-62
2022/09/13 02:27:07;;;;;;;14.13;9.55;;;;;;;-145.50;100.00;65435.88;5066160;28;20052;-61
2022/09/13 02:29:37;;;;;;;13.57;9.95;;;;;;;-145.50;100.00;65435.88;5071038;28;20048;-63
2022/09/13 02:32:09;;;;;;;12.15;10.10;;;;;;;-145.50;100.00;65435.88;5061174;28;20538;-61
2022/09/13 02:34:40;;;;;;;14.27;10.20;;;;;;;-145.50;100.00;65435.88;5057382;28;20453;-61
2022/09/13 02:37:09;;;;;;;12.88;10.18;;;;;;;-145.50;100.00;65435.88;5062031;28;20070;-61
2022/09/13 02:39:52;;;;;;;13.25;9.68;;;;;;;-145.50;100.00;65435.88;5070966;28;20048;-61
2022/09/13 02:42:23;;;;;;;13.77;10.30;;;;;;;-145.50;100.00;65435.88;5060964;28;20052;-62
2022/09/13 02:44:52;;;;;;;11.55;9.95;;;;;;;-145.50;100.00;65435.88;5068492;28;20106;-61
2022/09/13 02:47:51;;;;;;;13.55;9.75;;;;;;;-145.50;100.00;65435.88;5057088;28;20102;-62
2022/09/13 02:50:36;;;;;;;14.80;9.50;;;;;;;-145.50;100.00;65435.88;5055952;28;20044;-62
2022/09/13 02:53:06;;;;;;;12.27;9.65;;;;;;;-145.50;100.00;65435.88;5061906;28;20048;-62
2022/09/13 02:55:36;;;;;;;17.65;10.30;;;;;;;-145.50;100.00;65435.88;5072628;28;20090;-61
2022/09/13 02:58:17;;;;;;;12.43;10.65;;;;;;;-145.50;100.00;65435.88;5067509;28;20509;-62
2022/09/13 03:00:48;;;;;;;13.90;10.23;;;;;;;-145.50;100.00;65435.88;5061182;28;20048;-62
2022/09/13 03:03:16;;;;;;;13.30;11.23;;;;;;;-145.50;100.00;65435.88;5056747;28;20091;-61
2022/09/13 03:05:42;;;;;;;13.43;10.82;;;;;;;-145.50;100.00;65435.88;5070582;28;20045;-60
2022/09/13 03:08:12;;;;;;;13.48;10.57;;;;;;;-145.50;100.00;65435.88;5060093;28;20783;-61
2022/09/13 03:10:46;;;;;;;13.00;10.75;;;;;;;-145.50;100.00;65435.88;5063075;28;20052;-60
2022/09/13 03:13:42;;;;;;;17.10;11.57;;;;;;;-145.50;100.00;65435.88;5068181;28;20052;-61
2022/09/13 03:16:24;;;;;;;16.85;11.85;;;;;;;-145.50;100.00;65435.88;5054579;28;20045;-62
2022/09/13 03:19:08;;;;;;;14.32;10.75;;;;;;;-145.50;100.00;65435.88;5066909;28;20554;-62
2022/09/13 03:21:46;;;;;;;15.32;11.70;;;;;;;-145.50;100.00;65435.88;5062626;28;20114;-61
2022/09/13 03:24:35;;;;;;;16.30;11.25;;;;;;;-145.50;100.00;65435.88;5073207;28;20110;-62
2022/09/13 03:27:13;;;;;;;15.18;11.70;;;;;;;-145.50;100.00;65435.88;5065799;28;20060;-62
2022/09/13 03:29:56;;;;;;;16.83;12.32;;;;;;;-145.50;100.00;65435.88;5064174;28;20114;-61
2022/09/13 03:32:22;;;;;;;15.98;11.60;;;;;;;-145.50;100.00;65435.88;5064324;28;20056;-62
2022/09/13 03:35:10;;;;;;;14.52;11.75;;;;;;;-145.50;100.00;65435.88;5068182;28;20048;-62
2022/09/13 03:38:05;;;;;;;16.10;11.73;;;;;;;-145.50;100.00;65435.88;5074422;28;20143;-62
2022/09/13 03:40:42;;;;;;;13.95;11.85;;;;;;;-145.50;100.00;65435.88;5065740;28;20551;-61
2022/09/13 03:43:11;;;;;;;17.10;11.77;;;;;;;-145.50;100.00;65435.88;5062760;28;20044;-62
2022/09/13 03:45:43;;;;;;;14.85;12.15;;;;;;;-145.50;100.00;65435.88;5057776;28;20110;-62
2022/09/13 03:48:11;;;;;;;16.13;11.77;;;;;;;-145.50;100.00;65435.88;5061602;28;20094;-62
2022/09/13 03:50:39;;;;;;;13.35;11.05;;;;;;;-145.50;100.00;65435.88;5061798;28;20665;-62
2022/09/13 03:53:10;;;;;;;13.85;12.07;;;;;;;-145.50;100.00;65435.88;5072991;28;20066;-62
2022/09/13 03:55:41;;;;;;;16.90;12.55;;;;;;;-145.50;100.00;65435.88;5058875;28;20044;-62
2022/09/13 03:58:11;;;;;;;14.43;11.73;;;;;;;-145.50;100.00;65435.88;5058654;28;20055;-62
2022/09/13 04:00:39;;;;;;;13.57;11.02;;;;;;;-145.50;100.00;65435.88;5066574;28;20466;-61
2022/09/13 04:03:06;;;;;;;17.48;11.93;;;;;;;-145.50;100.00;65435.88;5060645;28;20052;-62
2022/09/13 04:05:33;;;;;;;13.70;10.40;;;;;;;-145.50;100.00;65435.88;5063517;28;20056;-62
2022/09/13 04:08:01;;;;;;;13.63;11.23;;;;;;;-145.50;100.00;65435.88;5060625;28;20046;-62
2022/09/13 04:10:30;;;;;;;17.02;11.80;;;;;;;-145.50;100.00;65435.88;5066313;28;20056;-62
2022/09/13 04:12:59;;;;;;;15.68;11.68;;;;;;;-145.50;100.00;65435.88;5056538;28;20071;-61
2022/09/13 04:15:26;;;;;;;14.57;11.93;;;;;;;-145.50;100.00;65435.88;5064617;28;20049;-61
2022/09/13 04:17:53;;;;;;;16.60;12.73;;;;;;;-145.50;100.00;65435.88;5072650;28;20118;-61
2022/09/13 04:20:19;;;;;;;13.98;12.48;;;;;;;-145.50;100.00;65435.88;5057299;28;20219;-61
2022/09/13 04:22:56;;;;;;;15.77;12.25;;;;;;;-145.50;100.00;65435.88;5066401;28;20052;-63
2022/09/13 04:25:23;;;;;;;17.90;12.85;;;;;;;-145.50;100.00;65435.88;5045037;28;20048;-57
2022/09/13 04:27:58;;;;;;;18.45;12.70;;;;;;;-145.50;100.00;65435.88;5065613;28;20052;-62
2022/09/13 04:30:28;;;;;;;16.05;12.55;;;;;;;-145.50;100.00;65435.88;5065871;28;20057;-62
2022/09/13 04:32:55;;;;;;;17.45;11.98;;;;;;;-145.50;100.00;65435.88;5073355;28;20098;-62
2022/09/13 04:35:22;;;;;;;16.27;12.45;;;;;;;-145.50;100.00;65435.88;5063832;28;20044;-63
2022/09/13 04:37:49;;;;;;;15.23;12.63;;;;;;;-145.50;100.00;65435.88;5061295;28;20056;-62
2022/09/13 04:40:16;;;;;;;19.70;12.77;;;;;;;-145.50;100.00;65435.88;5066512;28;20048;-63
2022/09/13 04:42:45;;;;;;;16.05;13.20;;;;;;;-145.50;100.00;65435.88;5058426;28;20416;-65
2022/09/13 04:45:11;;;;;;;17.05;12.30;;;;;;;-145.50;100.00;65435.88;5065575;28;20045;-62
2022/09/13 04:47:38;;;;;;;19.10;12.32;;;;;;;-145.50;100.00;65435.88;5059562;28;20078;-62
2022/09/13 04:50:05;;;;;;;18.02;13.45;;;;;;;-145.50;100.00;65435.88;5063587;28;20545;-62
2022/09/13 04:52:32;;;;;;;18.77;13.30;;;;;;;-145.50;100.00;65435.88;5073472;28;20044;-63
2022/09/13 04:55:00;;;;;;;18.52;12.95;;;;;;;-145.50;100.00;65435.88;5062026;28;20074;-62
2022/09/13 04:57:28;;;;;;;20.30;13.70;;;;;;;-145.50;100.00;65435.88;5072219;28;20044;-62
2022/09/13 04:59:54;;;;;;;20.23;15.35;;;;;;;-145.50;100.00;65435.88;5064039;28;20087;-62
2022/09/13 05:02:21;;;;;;;18.27;14.13;;;;;;;-145.50;100.00;65435.88;5073062;28;20048;-62
2022/09/13 05:04:47;;;;;;;15.40;13.30;;;;;;;-145.50;100.00;65435.88;5068461;28;20059;-62
2022/09/13 05:07:13;;;;;;;17.38;13.40;;;;;;;-145.50;100.00;65435.88;5067506;28;20474;-61
2022/09/13 05:09:40;;;;;;;17.90;13.05;;;;;;;-145.50;100.00;65435.88;5061040;28;20106;-61
2022/09/13 05:12:06;;;;;;;16.75;12.73;;;;;;;-145.50;100.00;65435.88;5066641;28;20052;-61
2022/09/13 05:14:33;;;;;;;16.25;13.30;;;;;;;-145.50;100.00;65435.88;5072582;28;20048;-62
2022/09/13 05:17:00;;;;;;;18.30;13.30;;;;;;;-145.50;100.00;65435.88;5065490;28;20083;-62
2022/09/13 05:19:26;;;;;;;18.23;13.48;;;;;;;-145.50;100.00;65435.88;5072673;28;20542;-62
2022/09/13 05:21:53;;;;;;;15.25;12.57;;;;;;;-145.50;100.00;65435.88;5052998;28;20096;-62
2022/09/13 05:24:19;;;;;;;16.00;12.38;;;;;;;-145.50;100.00;65435.88;5069892;28;20056;-63
2022/09/13 05:26:46;;;;;;;20.58;13.85;;;;;;;-145.50;100.00;65435.88;5070944;28;20044;-62
2022/09/13 05:29:12;;;;;;;22.98;13.57;;;;;;;-145.50;100.00;65435.88;5069298;28;20040;-61
2022/09/13 05:31:41;;;;;;;15.65;12.85;;;;;;;-145.50;100.00;65435.88;5072930;28;20102;-63
2022/09/13 05:34:11;;;;;;;17.65;12.82;;;;;;;-145.50;100.00;65435.88;5065695;28;20052;-63
2022/09/13 05:36:37;;;;;;;17.67;13.43;;;;;;;-145.50;100.00;65435.88;5065573;28;20048;-62
2022/09/13 05:39:05;;;;;;;17.77;12.80;;;;;;;-145.50;100.00;65435.88;5061835;28;20053;-63
2022/09/13 05:41:51;;;;;;;17.30;12.25;;;;;;;-145.50;100.00;65435.88;5067640;28;20059;-60
2022/09/13 05:44:17;;;;;;;18.40;13.25;;;;;;;-145.50;100.00;65435.88;5067183;28;20055;-63
2022/09/13 05:46:48;;;;;;;17.05;13.52;;;;;;;-145.50;100.00;65435.88;5069803;28;20040;-63
2022/09/13 05:49:15;;;;;;;18.35;13.95;;;;;;;-145.50;100.00;65435.88;5065639;28;20048;-62
2022/09/13 05:51:41;;;;;;;24.05;18.27;;;;;;;-145.50;100.00;65435.88;5057620;28;20066;-62
2022/09/13 05:54:11;;;;;;;25.08;20.15;;;;;;;-145.50;100.00;65435.88;5068792;28;20049;-63
2022/09/13 05:56:37;;;;;;;24.63;19.52;;;;;;;-145.50;100.00;65435.88;5065327;28;20056;-62
2022/09/13 05:59:03;;;;;;;20.77;15.20;;;;;;;-145.50;100.00;65435.88;5079366;28;20420;-61
2022/09/13 06:01:30;;;;;;;19.55;14.63;;;;;;;-145.50;100.00;65435.88;5061001;28;20052;-62
2022/09/13 06:03:58;;;;;;;20.23;14.02;;;;;;;-145.50;100.00;65435.88;5069033;28;20278;-62
2022/09/13 06:06:25;;;;;;;16.98;12.60;;;;;;;-145.50;100.00;65435.88;5071903;28;20102;-62
2022/09/13 06:08:53;;;;;;;16.67;13.70;;;;;;;-145.50;100.00;65435.88;5065921;28;20061;-61
2022/09/13 06:11:20;;;;;;;20.58;13.43;;;;;;;-145.50;100.00;65435.88;5067771;28;20166;-62
2022/09/13 06:13:47;;;;;;;19.38;13.65;;;;;;;-145.50;100.00;65435.88;5062630;28;20562;-63
2022/09/13 06:16:15;;;;;;;20.73;13.63;;;;;;;-145.50;100.00;65435.88;5064016;28;20048;-60
2022/09/13 06:18:42;;;;;;;;;;;;;;;-145.50;100.00;65435.88;5052752;28;20052;-61
2022/09/13 06:21:17;;;;;;;20.20;14.55;;;;;;;-145.50;100.00;65435.88;5067225;28;19920;-61
2022/09/13 06:23:45;;;;;;;17.50;14.40;;;;;;;-145.50;100.00;65435.88;5079186;28;20059;-63
2022/09/13 06:26:14;;;;;;;21.33;14.18;;;;;;;-145.50;100.00;65435.88;5061705;28;20040;-62
2022/09/13 06:28:41;;;;;;;18.90;13.25;;;;;;;-145.50;100.00;65435.88;5076970;28;20083;-63
2022/09/13 06:31:10;;;;;;;18.25;14.15;;;;;;;-145.50;100.00;65435.88;5054092;28;20053;-63
2022/09/13 06:33:38;;;;;;;23.75;16.60;;;;;;;-145.50;100.00;65435.88;5062810;28;20053;-62
2022/09/13 06:36:07;;;;;;;19.70;13.73;;;;;;;-145.50;100.00;65435.88;5065672;28;20566;-62
2022/09/13 06:38:34;;;;;;;19.55;13.77;;;;;;;-145.50;100.00;65435.88;5081554;28;20121;-63
2022/09/13 06:41:05;;;;;;;19.80;14.68;;;;;;;-145.50;100.00;65435.88;5063617;28;20052;-62
2022/09/13 06:43:32;;;;;;;18.15;14.68;;;;;;;-145.50;100.00;65435.88;5063574;28;20056;-62
2022/09/13 06:46:00;;;;;;;22.85;14.95;;;;;;;-145.50;100.00;65435.88;5070400;28;20069;-62
2022/09/13 06:48:30;;;;;;;19.38;14.60;;;;;;;-145.50;100.00;65435.88;5065813;28;20063;-63
2022/09/13 06:51:01;;;;;;;20.42;15.73;;;;;;;-145.50;100.00;65435.88;5065700;28;20105;-62
2022/09/13 06:53:28;;;;;;;23.98;16.25;;;;;;;-145.50;100.00;65435.88;5061879;28;20102;-61
2022/09/13 06:56:01;;;;;;;22.77;14.40;;;;;;;-145.50;100.00;65435.88;5070869;28;20048;-63
2022/09/13 06:58:31;;;;;;;20.27;16.17;;;;;;;-145.50;100.00;65435.88;5058865;28;20606;-62
2022/09/13 07:01:08;;;;;;;21.63;15.43;;;;;;;-145.50;100.00;65435.88;5063458;28;20040;-62
2022/09/13 07:03:36;;;;;;;19.38;15.13;;;;;;;-145.50;100.00;65435.88;5061084;28;20052;-65
2022/09/13 07:06:13;;;;;;;25.70;16.25;;;;;;;-145.50;100.00;65435.88;5067431;28;20040;-63
2022/09/13 07:08:47;;;;;;;20.42;16.77;;;;;;;-145.50;100.00;65435.88;5073562;28;20541;-63
2022/09/13 07:11:17;;;;;;;26.02;16.38;;;;;;;-145.50;100.00;65435.88;5063232;28;20666;-64
2022/09/13 07:13:48;;;;;;;19.98;16.00;;;;;;;-145.50;100.00;65435.88;5060540;28;20098;-62
2022/09/13 07:16:15;;;;;;;22.52;17.33;;;;;;;-145.50;100.00;65435.88;5062921;28;20040;-63
2022/09/13 07:18:42;;;;;;;27.08;16.67;;;;;;;-145.50;100.00;65435.88;5069067;28;20052;-64
2022/09/13 07:21:10;;;;;;;26.60;18.30;;;;;;;-145.50;100.00;65435.88;5059543;28;20044;-63
2022/09/13 07:23:38;;;;;;;24.00;18.23;;;;;;;-145.50;100.00;65435.88;5062784;28;20048;-64
2022/09/13 07:26:06;;;;;;;27.30;19.13;;;;;;;-145.50;100.00;65435.88;5064863;28;20049;-62
2022/09/13 07:28:38;;;;;;;24.73;19.23;;;;;;;-145.50;100.00;65435.88;5056793;28;20052;-64
2022/09/13 07:31:10;;;;;;;25.55;18.13;;;;;;;-145.50;100.00;65435.88;5066322;28;20110;-61
2022/09/13 07:33:41;;;;;;;27.00;19.38;;;;;;;-145.50;100.00;65435.88;5060144;28;20543;-63
2022/09/13 07:36:10;;;;;;;22.23;17.15;;;;;;;-145.50;100.00;65435.88;5060284;28;20496;-63
2022/09/13 07:38:45;;;;;;;25.90;18.67;;;;;;;-145.50;100.00;65435.88;5058612;28;20479;-62
2022/09/13 07:41:14;;;;;;;26.77;20.38;;;;;;;-145.50;100.00;65435.88;5064052;28;20464;-63
2022/09/13 07:43:41;;;;;;;36.65;20.33;;;;;;;-145.50;100.00;65435.88;5061657;28;20056;-64
2022/09/13 07:46:16;;;;;;;28.75;20.73;;;;;;;-145.50;100.00;65435.88;5068252;28;20105;-63
2022/09/13 07:48:45;;;;;;;27.10;20.15;;;;;;;-145.50;100.00;65435.88;5070850;28;20101;-63
2022/09/13 07:51:17;;;;;;;28.65;19.58;;;;;;;-145.50;100.00;65435.88;5062392;28;20079;-63
2022/09/13 07:53:45;;;;;;;29.83;18.77;;;;;;;-145.50;100.00;65435.88;5064246;28;20079;-64
2022/09/13 07:56:16;;;;;;;27.80;19.17;;;;;;;-145.50;100.00;65435.88;5055025;28;20479;-63
2022/09/13 07:58:45;;;;;;;24.50;19.17;;;;;;;-145.50;100.00;65435.88;5067575;28;20051;-63
2022/09/13 08:01:14;;;;;;;24.63;18.52;;;;;;;-145.50;100.00;65435.88;5064145;28;20052;-64
2022/09/13 08:03:41;;;;;;;28.42;17.98;;;;;;;-145.50;100.00;65435.88;5066530;28;20461;-63
2022/09/13 08:06:08;;;;;;;23.85;15.02;;;;;;;-145.50;100.00;65435.88;5066683;28;20049;-62
2022/09/13 08:08:35;;;;;;;22.98;15.00;;;;;;;-145.50;100.00;65435.88;5054706;28;20099;-63
2022/09/13 08:11:05;;;;;;;24.90;14.48;;;;;;;-145.50;100.00;65435.88;5060826;28;20505;-65
2022/09/13 08:13:32;;;;;;;13.60;9.45;;;;;;;-145.50;100.00;65435.88;5058798;28;20467;-63
2022/09/13 08:16:03;;;;;;;19.50;12.20;;;;;;;-145.50;100.00;65435.88;5067497;28;20049;-63
2022/09/13 08:18:31;;;;;;;17.27;11.85;;;;;;;-145.50;100.00;65435.88;5059781;28;20597;-63
2022/09/13 08:20:59;;;;;;;17.35;10.48;;;;;;;-145.50;100.00;65435.88;5063053;28;20455;-65
2022/09/13 08:23:26;;;;;;;14.00;10.02;;;;;;;-145.50;100.00;65435.88;5055349;28;20041;-64
2022/09/13 08:25:53;;;;;;;14.05;9.40;;;;;;;-145.50;100.00;65435.88;5070550;28;20040;-63
2022/09/13 08:28:21;;;;;;;13.32;10.13;;;;;;;-145.50;100.00;65435.88;5073681;28;20044;-64
2022/09/13 08:30:52;;;;;;;14.38;9.38;;;;;;;-145.50;100.00;65435.88;5066958;28;20432;-64
2022/09/13 08:33:19;;;;;;;11.25;8.88;;;;;;;-145.50;100.00;65435.88;5077590;28;20127;-64
2022/09/13 08:35:51;;;;;;;10.43;7.50;;;;;;;-145.50;100.00;65435.88;5059622;28;20684;-63
2022/09/13 08:38:18;;;;;;;11.68;6.63;;;;;;;-145.50;100.00;65435.88;5065803;28;20512;-64
2022/09/13 08:40:52;;;;;;;7.65;4.85;;;;;;;-145.50;100.00;65435.88;5064545;28;20052;-63
2022/09/13 08:43:40;;;;;;;8.88;5.05;;;;;;;-145.50;100.00;65435.88;5070981;28;20052;-64
2022/09/13 08:46:27;;;;;;;9.48;5.18;;;;;;;-145.50;100.00;65435.88;5067671;28;20400;-64
2022/09/13 08:49:00;;;;;;;7.82;4.78;;;;;;;-145.50;100.00;65435.88;5065700;28;20049;-65
2022/09/13 08:51:36;;;;;;;7.82;4.32;;;;;;;-145.50;100.00;65435.88;5065398;28;20586;-64
2022/09/13 08:54:03;;;;;;;8.27;5.20;;;;;;;-145.50;100.00;65435.88;5069556;28;20060;-63
2022/09/13 08:56:39;;;;;;;9.07;5.93;;;;;;;-145.50;100.00;65435.88;5072402;28;20051;-64
2022/09/13 08:59:32;;;;;;;9.32;5.25;;;;;;;-145.50;100.00;65435.88;5065877;28;20056;-64
2022/09/13 09:02:19;;;;;;;12.60;8.05;;;;;;;-145.50;100.00;65435.88;5075536;28;20105;-65
2022/09/13 09:05:05;;;;;;;;;;;;;;;-145.50;100.00;65435.88;5062651;28;20548;-64
2022/09/13 09:07:44;;;;;;;12.48;8.13;;;;;;;-145.50;100.00;65435.88;5069167;28;20039;-64
2022/09/13 09:10:38;;;;;;;18.05;10.30;;;;;;;-145.50;100.00;65435.88;5060311;28;20098;-63
2022/09/13 09:13:13;;;;;;;13.80;10.15;;;;;;;-145.50;100.00;65435.88;5067520;28;20136;-65
2022/09/13 09:15:45;;;;;;;16.48;11.00;;;;;;;-145.50;100.00;65435.88;5062412;28;20056;-64
2022/09/13 09:18:24;;;;;;;17.42;12.40;;;;;;;-145.50;100.00;65435.88;5063005;28;20080;-64
2022/09/13 09:20:53;;;;;;;18.10;12.95;;;;;;;-145.50;100.00;65435.88;5062735;28;20110;-64
2022/09/13 09:23:24;;;;;;;17.90;13.60;;;;;;;-145.50;100.00;65435.88;5068838;28;20040;-63
2022/09/13 09:25:55;;;;;;;15.13;12.18;;;;;;;-145.50;100.00;65435.88;5067716;28;20052;-63
2022/09/13 09:28:22;;;;;;;17.98;10.82;;;;;;;-145.50;100.00;65435.88;5069143;28;20093;-64
2022/09/13 09:31:01;;;;;;;20.80;12.68;;;;;;;-145.50;100.00;65435.88;5064645;28;20052;-63
2022/09/13 09:34:00;;;;;;;16.15;11.27;;;;;;;-145.50;100.00;65435.88;5053512;28;20048;-63
2022/09/13 09:36:42;;;;;;;15.55;10.60;;;;;;;-145.50;100.00;65435.88;5068812;28;20467;-64
2022/09/13 09:39:15;;;;;;;16.67;10.43;;;;;;;-145.50;100.00;65435.88;5057597;28;20122;-63
2022/09/13 09:41:43;;;;;;;13.30;9.10;;;;;;;-145.50;100.00;65435.88;5079563;28;20044;-63
2022/09/13 09:44:20;;;;;;;13.55;10.00;;;;;;;-145.50;100.00;65435.88;5062659;28;20519;-63
2022/09/13 09:46:50;;;;;;;12.50;10.25;;;;;;;-145.50;100.00;65435.88;5070163;28;20052;-65
2022/09/13 09:52:27;;;;;;;14.02;10.77;;;;;;;-145.50;100.00;65435.88;5080938;28;20041;-63
2022/09/13 09:55:01;;;;;;;14.38;9.63;;;;;;;-145.50;100.00;65435.88;5058938;28;20103;-64
2022/09/13 09:57:49;;;;;;;11.77;9.00;;;;;;;-145.50;100.00;65435.88;5063057;28;20159;-64
2022/09/13 10:00:16;;;;;;;13.38;9.27;;;;;;;-145.50;100.00;65435.88;5065510;28;20496;-64
2022/09/13 10:02:44;;;;;;;11.27;8.93;;;;;;;-145.50;100.00;65435.88;5072216;28;20051;-64
2022/09/13 10:05:13;;;;;;;10.82;7.75;;;;;;;-145.50;100.00;65435.88;5068739;28;20048;-63
2022/09/13 10:07:40;;;;;;;12.52;8.10;;;;;;;-145.50;100.00;65435.88;5057666;28;20057;-64
2022/09/13 10:10:23;;;;;;;11.30;7.93;;;;;;;-145.50;100.00;65435.88;5050324;28;20053;-63
2022/09/13 10:12:54;;;;;;;15.32;8.65;;;;;;;-145.50;100.00;65435.88;5059983;28;20056;-64
2022/09/13 10:15:31;;;;;;;10.65;7.57;;;;;;;-145.50;100.00;65435.88;5067157;28;20052;-65
2022/09/13 10:18:05;;;;;;;13.98;7.22;;;;;;;-145.50;100.00;65435.88;5060543;28;20052;-64
2022/09/13 10:21:06;;;;;;;9.65;6.07;;;;;;;-145.50;100.00;65435.88;5073811;28;20131;-64
2022/09/13 10:23:35;;;;;;;11.20;5.30;;;;;;;-145.50;100.00;65435.88;5063221;28;20629;-64
2022/09/13 10:26:09;;;;;;;8.27;5.18;;;;;;;-145.50;100.00;65435.88;5072385;28;20056;-63
2022/09/13 10:29:07;;;;;;;12.57;5.18;;;;;;;-145.50;100.00;65435.88;5072659;28;20113;-64
2022/09/13 10:31:38;;;;;;;;;;;;;;;-145.50;100.00;65435.88;5065700;28;20052;-64
2022/09/13 10:34:13;;;;;;;5.82;3.95;;;;;;;-145.50;100.00;65435.88;5068130;28;20318;-64
2022/09/13 10:36:50;;;;;;;10.38;4.80;;;;;;;-145.50;100.00;65435.88;5058238;28;20067;-64
2022/09/13 10:39:21;;;;;;;7.32;4.38;;;;;;;-145.50;100.00;65435.88;5064030;28;20057;-63
2022/09/13 10:42:08;;;;;;;6.95;3.72;;;;;;;-145.50;100.00;65435.88;5062224;28;20082;-64
2022/09/13 10:44:38;;;;;;;;;;;;;;;-145.50;100.00;65435.88;5072442;28;20065;-65
2022/09/13 10:47:10;;;;;;;5.40;4.20;;;;;;;-145.50;100.00;65435.88;5064950;28;19925;-64
2022/09/13 10:49:43;;;;;;;6.63;4.38;;;;;;;-145.50;100.00;65435.88;5076379;28;20056;-63
2022/09/13 10:52:40;;;;;;;5.45;4.10;;;;;;;-145.50;100.00;65435.88;5063467;28;20117;-64
2022/09/13 10:55:19;;;;;;;6.85;3.70;;;;;;;-145.50;100.00;65435.88;5058588;28;20098;-65
2022/09/13 10:57:52;;;;;;;6.95;4.50;;;;;;;-145.50;100.00;65435.88;5060579;28;20060;-64
2022/09/13 11:00:40;;;;;;;6.20;4.05;;;;;;;-145.50;100.00;65435.88;5074133;28;20075;-64
2022/09/13 11:03:31;;;;;;;10.35;4.03;;;;;;;-145.50;100.00;65435.88;5057219;28;20051;-64
2022/09/13 11:06:06;;;;;;;6.85;4.47;;;;;;;-145.50;100.00;65435.88;5067857;28;20477;-64
2022/09/13 11:09:08;;;;;;;7.97;5.63;;;;;;;-145.50;100.00;65435.88;5067576;28;20056;-65
2022/09/13 11:11:58;;;;;;;5.63;4.00;;;;;;;-145.50;100.00;65435.88;5060094;28;20065;-64
2022/09/13 11:14:37;;;;;;;4.78;3.60;;;;;;;-145.50;100.00;65435.88;5067251;28;20070;-64
2022/09/13 11:17:30;;;;;;;6.28;3.80;;;;;;;-145.50;100.00;65435.88;5068780;28;20098;-64
2022/09/13 11:20:12;;;;;;;6.88;3.83;;;;;;;-145.50;100.00;65435.88;5053298;28;20053;-64
2022/09/13 11:23:01;;;;;;;7.63;3.15;;;;;;;-145.50;100.00;65435.88;5070149;28;20720;-64
2022/09/13 11:25:42;;;;;;;5.88;3.30;;;;;;;-145.50;100.00;65435.88;5067583;28;20048;-64
2022/09/13 11:28:22;;;;;;;5.65;2.88;;;;;;;-145.50;100.00;65435.88;5053629;28;20049;-63